Aviation Digital Data Service (ADDS)

Output produced by METARs form (1942 UTC 26 September 2021)
found at http://www.aviationweather.gov/metar/data/
 
METAR text: LKPR 261930Z 12003KT CAVOK 17/13 Q1018 NOSIG
Conditions at: LKPR (PRAGUE/RUZYNE , CZ) observed 1930 UTC 26 September 2021
Temperature: 17.0°C (63°F)
Dewpoint: 13.0°C (55°F) [RH = 77%]
Pressure (altimeter): 30.06 inches Hg (1018.0 mb)
Winds: from the ESE (120 degrees) at 3 MPH (3 knots; 1.5 m/s)
Visibility: 6 or more miles (10+ km)
Ceiling: ceiling and visibility are OK
Clouds: unknown
Weather: no significant weather observed at this time

METAR text: LKPR 261900Z 13004KT CAVOK 18/13 Q1018 NOSIG
Conditions at: LKPR (PRAGUE/RUZYNE , CZ) observed 1900 UTC 26 September 2021
Temperature: 18.0°C (64°F)
Dewpoint: 13.0°C (55°F) [RH = 73%]
Pressure (altimeter): 30.06 inches Hg (1018.0 mb)
Winds: from the SE (130 degrees) at 5 MPH (4 knots; 2.1 m/s)
Visibility: 6 or more miles (10+ km)
Ceiling: ceiling and visibility are OK
Clouds: unknown
Weather: no significant weather observed at this time

METAR text: LKPR 261830Z 10006KT CAVOK 17/13 Q1018 NOSIG
Conditions at: LKPR (PRAGUE/RUZYNE , CZ) observed 1830 UTC 26 September 2021
Temperature: 17.0°C (63°F)
Dewpoint: 13.0°C (55°F) [RH = 77%]
Pressure (altimeter): 30.06 inches Hg (1018.0 mb)
Winds: from the E (100 degrees) at 7 MPH (6 knots; 3.1 m/s)
Visibility: 6 or more miles (10+ km)
Ceiling: ceiling and visibility are OK
Clouds: unknown
Weather: no significant weather observed at this time

METAR text: LKPR 261800Z 06005KT CAVOK 18/13 Q1018 NOSIG
Conditions at: LKPR (PRAGUE/RUZYNE , CZ) observed 1800 UTC 26 September 2021
Temperature: 18.0°C (64°F)
Dewpoint: 13.0°C (55°F) [RH = 73%]
Pressure (altimeter): 30.06 inches Hg (1018.0 mb)
Winds: from the ENE (60 degrees) at 6 MPH (5 knots; 2.6 m/s)
Visibility: 6 or more miles (10+ km)
Ceiling: ceiling and visibility are OK
Clouds: unknown
Weather: no significant weather observed at this time

METAR text: LKPR 261730Z 07004KT 040V120 CAVOK 19/14 Q1018 NOSIG
Conditions at: LKPR (PRAGUE/RUZYNE , CZ) observed 1730 UTC 26 September 2021
Temperature: 19.0°C (66°F)
Dewpoint: 14.0°C (57°F) [RH = 73%]
Pressure (altimeter): 30.06 inches Hg (1018.0 mb)
Winds: from the ENE (70 degrees) at 5 MPH (4 knots; 2.1 m/s)
Visibility: 6 or more miles (10+ km)
Ceiling: ceiling and visibility are OK
Clouds: unknown
Weather: no significant weather observed at this time

METAR text: LKPR 261700Z 07007KT CAVOK 19/13 Q1018 NOSIG
Conditions at: LKPR (PRAGUE/RUZYNE , CZ) observed 1700 UTC 26 September 2021
Temperature: 19.0°C (66°F)
Dewpoint: 13.0°C (55°F) [RH = 68%]
Pressure (altimeter): 30.06 inches Hg (1018.0 mb)
Winds: from the ENE (70 degrees) at 8 MPH (7 knots; 3.6 m/s)
Visibility: 6 or more miles (10+ km)
Ceiling: ceiling and visibility are OK
Clouds: unknown
Weather: no significant weather observed at this time

METAR text: LKPR 261630Z 05006KT CAVOK 20/14 Q1018 NOSIG
Conditions at: LKPR (PRAGUE/RUZYNE , CZ) observed 1630 UTC 26 September 2021
Temperature: 20.0°C (68°F)
Dewpoint: 14.0°C (57°F) [RH = 68%]
Pressure (altimeter): 30.06 inches Hg (1018.0 mb)
Winds: from the NE (50 degrees) at 7 MPH (6 knots; 3.1 m/s)
Visibility: 6 or more miles (10+ km)
Ceiling: ceiling and visibility are OK
Clouds: unknown
Weather: no significant weather observed at this time

METAR text: LKPR 261600Z 05006KT CAVOK 21/14 Q1018 NOSIG
Conditions at: LKPR (PRAGUE/RUZYNE , CZ) observed 1600 UTC 26 September 2021
Temperature: 21.0°C (70°F)
Dewpoint: 14.0°C (57°F) [RH = 64%]
Pressure (altimeter): 30.06 inches Hg (1018.0 mb)
Winds: from the NE (50 degrees) at 7 MPH (6 knots; 3.1 m/s)
Visibility: 6 or more miles (10+ km)
Ceiling: ceiling and visibility are OK
Clouds: unknown
Weather: no significant weather observed at this time

METAR text: LKPR 261530Z 08006KT CAVOK 22/14 Q1018 NOSIG
Conditions at: LKPR (PRAGUE/RUZYNE , CZ) observed 1530 UTC 26 September 2021
Temperature: 22.0°C (72°F)
Dewpoint: 14.0°C (57°F) [RH = 60%]
Pressure (altimeter): 30.06 inches Hg (1018.0 mb)
Winds: from the E (80 degrees) at 7 MPH (6 knots; 3.1 m/s)
Visibility: 6 or more miles (10+ km)
Ceiling: ceiling and visibility are OK
Clouds: unknown
Weather: no significant weather observed at this time

METAR text: LKPR 261500Z 08006KT 040V120 CAVOK 22/14 Q1018 NOSIG
Conditions at: LKPR (PRAGUE/RUZYNE , CZ) observed 1500 UTC 26 September 2021
Temperature: 22.0°C (72°F)
Dewpoint: 14.0°C (57°F) [RH = 60%]
Pressure (altimeter): 30.06 inches Hg (1018.0 mb)
Winds: from the E (80 degrees) at 7 MPH (6 knots; 3.1 m/s)
Visibility: 6 or more miles (10+ km)
Ceiling: ceiling and visibility are OK
Clouds: unknown
Weather: no significant weather observed at this time

METAR text: LKPR 261430Z 07007KT CAVOK 22/14 Q1018 NOSIG
Conditions at: LKPR (PRAGUE/RUZYNE , CZ) observed 1430 UTC 26 September 2021
Temperature: 22.0°C (72°F)
Dewpoint: 14.0°C (57°F) [RH = 60%]
Pressure (altimeter): 30.06 inches Hg (1018.0 mb)
Winds: from the ENE (70 degrees) at 8 MPH (7 knots; 3.6 m/s)
Visibility: 6 or more miles (10+ km)
Ceiling: ceiling and visibility are OK
Clouds: unknown
Weather: no significant weather observed at this time

METAR text: LKPR 261400Z 08007KT 050V110 CAVOK 22/13 Q1018 NOSIG
Conditions at: LKPR (PRAGUE/RUZYNE , CZ) observed 1400 UTC 26 September 2021
Temperature: 22.0°C (72°F)
Dewpoint: 13.0°C (55°F) [RH = 57%]
Pressure (altimeter): 30.06 inches Hg (1018.0 mb)
Winds: from the E (80 degrees) at 8 MPH (7 knots; 3.6 m/s)
Visibility: 6 or more miles (10+ km)
Ceiling: ceiling and visibility are OK
Clouds: unknown
Weather: no significant weather observed at this time

METAR text: LKPR 261330Z 08006KT CAVOK 22/13 Q1018 NOSIG
Conditions at: LKPR (PRAGUE/RUZYNE , CZ) observed 1330 UTC 26 September 2021
Temperature: 22.0°C (72°F)
Dewpoint: 13.0°C (55°F) [RH = 57%]
Pressure (altimeter): 30.06 inches Hg (1018.0 mb)
Winds: from the E (80 degrees) at 7 MPH (6 knots; 3.1 m/s)
Visibility: 6 or more miles (10+ km)
Ceiling: ceiling and visibility are OK
Clouds: unknown
Weather: no significant weather observed at this time

METAR text: LKPR 261300Z 09005KT 040V150 CAVOK 22/13 Q1019 NOSIG
Conditions at: LKPR (PRAGUE/RUZYNE , CZ) observed 1300 UTC 26 September 2021
Temperature: 22.0°C (72°F)
Dewpoint: 13.0°C (55°F) [RH = 57%]
Pressure (altimeter): 30.09 inches Hg (1019.0 mb)
Winds: from the E (90 degrees) at 6 MPH (5 knots; 2.6 m/s)
Visibility: 6 or more miles (10+ km)
Ceiling: ceiling and visibility are OK
Clouds: unknown
Weather: no significant weather observed at this time

METAR text: LKPR 261230Z 14005KT 110V170 CAVOK 22/13 Q1019 NOSIG
Conditions at: LKPR (PRAGUE/RUZYNE , CZ) observed 1230 UTC 26 September 2021
Temperature: 22.0°C (72°F)
Dewpoint: 13.0°C (55°F) [RH = 57%]
Pressure (altimeter): 30.09 inches Hg (1019.0 mb)
Winds: from the SE (140 degrees) at 6 MPH (5 knots; 2.6 m/s)
Visibility: 6 or more miles (10+ km)
Ceiling: ceiling and visibility are OK
Clouds: unknown
Weather: no significant weather observed at this time

METAR text: LKPR 261200Z 12005KT 080V160 CAVOK 22/12 Q1019 NOSIG
Conditions at: LKPR (PRAGUE/RUZYNE , CZ) observed 1200 UTC 26 September 2021
Temperature: 22.0°C (72°F)
Dewpoint: 12.0°C (54°F) [RH = 53%]
Pressure (altimeter): 30.09 inches Hg (1019.0 mb)
Winds: from the ESE (120 degrees) at 6 MPH (5 knots; 2.6 m/s)
Visibility: 6 or more miles (10+ km)
Ceiling: ceiling and visibility are OK
Clouds: unknown
Weather: no significant weather observed at this time

METAR text: LKPR 261130Z 13004KT 070V190 CAVOK 22/12 Q1019 NOSIG
Conditions at: LKPR (PRAGUE/RUZYNE , CZ) observed 1130 UTC 26 September 2021
Temperature: 22.0°C (72°F)
Dewpoint: 12.0°C (54°F) [RH = 53%]
Pressure (altimeter): 30.09 inches Hg (1019.0 mb)
Winds: from the SE (130 degrees) at 5 MPH (4 knots; 2.1 m/s)
Visibility: 6 or more miles (10+ km)
Ceiling: ceiling and visibility are OK
Clouds: unknown
Weather: no significant weather observed at this time

METAR text: LKPR 261100Z 15006KT 120V180 CAVOK 22/12 Q1020 NOSIG
Conditions at: LKPR (PRAGUE/RUZYNE , CZ) observed 1100 UTC 26 September 2021
Temperature: 22.0°C (72°F)
Dewpoint: 12.0°C (54°F) [RH = 53%]
Pressure (altimeter): 30.12 inches Hg (1020.0 mb)
Winds: from the SSE (150 degrees) at 7 MPH (6 knots; 3.1 m/s)
Visibility: 6 or more miles (10+ km)
Ceiling: ceiling and visibility are OK
Clouds: unknown
Weather: no significant weather observed at this time

METAR text: LKPR 261030Z 12004KT 060V170 CAVOK 21/12 Q1020 NOSIG
Conditions at: LKPR (PRAGUE/RUZYNE , CZ) observed 1030 UTC 26 September 2021
Temperature: 21.0°C (70°F)
Dewpoint: 12.0°C (54°F) [RH = 56%]
Pressure (altimeter): 30.12 inches Hg (1020.0 mb)
Winds: from the ESE (120 degrees) at 5 MPH (4 knots; 2.1 m/s)
Visibility: 6 or more miles (10+ km)
Ceiling: ceiling and visibility are OK
Clouds: unknown
Weather: no significant weather observed at this time

METAR text: LKPR 261000Z 12003KT 040V210 CAVOK 21/12 Q1020 NOSIG
Conditions at: LKPR (PRAGUE/RUZYNE , CZ) observed 1000 UTC 26 September 2021
Temperature: 21.0°C (70°F)
Dewpoint: 12.0°C (54°F) [RH = 56%]
Pressure (altimeter): 30.12 inches Hg (1020.0 mb)
Winds: from the ESE (120 degrees) at 3 MPH (3 knots; 1.5 m/s)
Visibility: 6 or more miles (10+ km)
Ceiling: ceiling and visibility are OK
Clouds: unknown
Weather: no significant weather observed at this time

METAR text: LKPR 260930Z 14004KT 050V220 CAVOK 19/13 Q1020 NOSIG
Conditions at: LKPR (PRAGUE/RUZYNE , CZ) observed 0930 UTC 26 September 2021
Temperature: 19.0°C (66°F)
Dewpoint: 13.0°C (55°F) [RH = 68%]
Pressure (altimeter): 30.12 inches Hg (1020.0 mb)
Winds: from the SE (140 degrees) at 5 MPH (4 knots; 2.1 m/s)
Visibility: 6 or more miles (10+ km)
Ceiling: ceiling and visibility are OK
Clouds: unknown
Weather: no significant weather observed at this time

METAR text: LKPR 260900Z 15004KT 110V190 CAVOK 18/13 Q1020 NOSIG
Conditions at: LKPR (PRAGUE/RUZYNE , CZ) observed 0900 UTC 26 September 2021
Temperature: 18.0°C (64°F)
Dewpoint: 13.0°C (55°F) [RH = 73%]
Pressure (altimeter): 30.12 inches Hg (1020.0 mb)
Winds: from the SSE (150 degrees) at 5 MPH (4 knots; 2.1 m/s)
Visibility: 6 or more miles (10+ km)
Ceiling: ceiling and visibility are OK
Clouds: unknown
Weather: no significant weather observed at this time

METAR text: LKPR 260830Z VRB02KT CAVOK 16/13 Q1020 NOSIG
Conditions at: LKPR (PRAGUE/RUZYNE , CZ) observed 0830 UTC 26 September 2021
Temperature: 16.0°C (61°F)
Dewpoint: 13.0°C (55°F) [RH = 82%]
Pressure (altimeter): 30.12 inches Hg (1020.0 mb)
Winds: variable direction winds at 2 MPH (2 knots; 1.0 m/s)
Visibility: 6 or more miles (10+ km)
Ceiling: ceiling and visibility are OK
Clouds: unknown
Weather: no significant weather observed at this time

METAR text: LKPR 260800Z 00000KT CAVOK 14/12 Q1020 NOSIG
Conditions at: LKPR (PRAGUE/RUZYNE , CZ) observed 0800 UTC 26 September 2021
Temperature: 14.0°C (57°F)
Dewpoint: 12.0°C (54°F) [RH = 88%]
Pressure (altimeter): 30.12 inches Hg (1020.0 mb)
Winds: calm
Visibility: 6 or more miles (10+ km)
Ceiling: ceiling and visibility are OK
Clouds: unknown
Weather: no significant weather observed at this time

METAR text: LKPR 260730Z 32002KT CAVOK 13/12 Q1020 NOSIG
Conditions at: LKPR (PRAGUE/RUZYNE , CZ) observed 0730 UTC 26 September 2021
Temperature: 13.0°C (55°F)
Dewpoint: 12.0°C (54°F) [RH = 94%]
Pressure (altimeter): 30.12 inches Hg (1020.0 mb)
Winds: from the NW (320 degrees) at 2 MPH (2 knots; 1.0 m/s)
Visibility: 6 or more miles (10+ km)
Ceiling: ceiling and visibility are OK
Clouds: unknown
Weather: no significant weather observed at this time

METAR text: LKPR 260700Z VRB02KT 9000 NSC 13/12 Q1020 NOSIG
Conditions at: LKPR (PRAGUE/RUZYNE , CZ) observed 0700 UTC 26 September 2021
Temperature: 13.0°C (55°F)
Dewpoint: 12.0°C (54°F) [RH = 94%]
Pressure (altimeter): 30.12 inches Hg (1020.0 mb)
Winds: variable direction winds at 2 MPH (2 knots; 1.0 m/s)
Visibility: 6 miles ( 9 km)
Ceiling: at least 12,000 feet AGL
Clouds: sky clear below 12,000 feet AGL
Weather: no significant weather observed at this time

METAR text: LKPR 260630Z VRB02KT 8000 NSC 13/12 Q1020 NOSIG
Conditions at: LKPR (PRAGUE/RUZYNE , CZ) observed 0630 UTC 26 September 2021
Temperature: 13.0°C (55°F)
Dewpoint: 12.0°C (54°F) [RH = 94%]
Pressure (altimeter): 30.12 inches Hg (1020.0 mb)
Winds: variable direction winds at 2 MPH (2 knots; 1.0 m/s)
Visibility: 5 miles ( 8 km)
Ceiling: at least 12,000 feet AGL
Clouds: sky clear below 12,000 feet AGL
Weather: no significant weather observed at this time

METAR text: LKPR 260600Z 00000KT 8000 NSC 11/10 Q1020 NOSIG
Conditions at: LKPR (PRAGUE/RUZYNE , CZ) observed 0600 UTC 26 September 2021
Temperature: 11.0°C (52°F)
Dewpoint: 10.0°C (50°F) [RH = 94%]
Pressure (altimeter): 30.12 inches Hg (1020.0 mb)
Winds: calm
Visibility: 5 miles ( 8 km)
Ceiling: at least 12,000 feet AGL
Clouds: sky clear below 12,000 feet AGL
Weather: no significant weather observed at this time

METAR text: LKPR 260530Z VRB02KT 8000 NSC 10/09 Q1020 NOSIG
Conditions at: LKPR (PRAGUE/RUZYNE , CZ) observed 0530 UTC 26 September 2021
Temperature: 10.0°C (50°F)
Dewpoint: 9.0°C (48°F) [RH = 93%]
Pressure (altimeter): 30.12 inches Hg (1020.0 mb)
Winds: variable direction winds at 2 MPH (2 knots; 1.0 m/s)
Visibility: 5 miles ( 8 km)
Ceiling: at least 12,000 feet AGL
Clouds: sky clear below 12,000 feet AGL
Weather: no significant weather observed at this time

METAR text: LKPR 260500Z 27002KT 8000 NSC 10/09 Q1019 NOSIG
Conditions at: LKPR (PRAGUE/RUZYNE , CZ) observed 0500 UTC 26 September 2021
Temperature: 10.0°C (50°F)
Dewpoint: 9.0°C (48°F) [RH = 93%]
Pressure (altimeter): 30.09 inches Hg (1019.0 mb)
Winds: from the W (270 degrees) at 2 MPH (2 knots; 1.0 m/s)
Visibility: 5 miles ( 8 km)
Ceiling: at least 12,000 feet AGL
Clouds: sky clear below 12,000 feet AGL
Weather: no significant weather observed at this time

METAR text: LKPR 260430Z 29002KT 9000 NSC 10/10 Q1019 NOSIG
Conditions at: LKPR (PRAGUE/RUZYNE , CZ) observed 0430 UTC 26 September 2021
Temperature: 10.0°C (50°F)
Dewpoint: 10.0°C (50°F) [RH = 100%]
Pressure (altimeter): 30.09 inches Hg (1019.0 mb)
Winds: from the WNW (290 degrees) at 2 MPH (2 knots; 1.0 m/s)
Visibility: 6 miles ( 9 km)
Ceiling: at least 12,000 feet AGL
Clouds: sky clear below 12,000 feet AGL
Weather: no significant weather observed at this time

METAR text: LKPR 260400Z VRB02KT 9999 MIFG NSC 10/09 Q1020 NOSIG
Conditions at: LKPR (PRAGUE/RUZYNE , CZ) observed 0400 UTC 26 September 2021
Temperature: 10.0°C (50°F)
Dewpoint: 9.0°C (48°F) [RH = 93%]
Pressure (altimeter): 30.12 inches Hg (1020.0 mb)
Winds: variable direction winds at 2 MPH (2 knots; 1.0 m/s)
Visibility: 6 or more miles (10+ km)
Ceiling: at least 12,000 feet AGL
Clouds: sky clear below 12,000 feet AGL
Weather: MIFG  (shallow fog)

METAR text: LKPR 260330Z VRB02KT 9999 MIFG NSC 10/10 Q1019 NOSIG
Conditions at: LKPR (PRAGUE/RUZYNE , CZ) observed 0330 UTC 26 September 2021
Temperature: 10.0°C (50°F)
Dewpoint: 10.0°C (50°F) [RH = 100%]
Pressure (altimeter): 30.09 inches Hg (1019.0 mb)
Winds: variable direction winds at 2 MPH (2 knots; 1.0 m/s)
Visibility: 6 or more miles (10+ km)
Ceiling: at least 12,000 feet AGL
Clouds: sky clear below 12,000 feet AGL
Weather: MIFG  (shallow fog)

METAR text: LKPR 260300Z 25002KT CAVOK 11/10 Q1019 NOSIG
Conditions at: LKPR (PRAGUE/RUZYNE , CZ) observed 0300 UTC 26 September 2021
Temperature: 11.0°C (52°F)
Dewpoint: 10.0°C (50°F) [RH = 94%]
Pressure (altimeter): 30.09 inches Hg (1019.0 mb)
Winds: from the WSW (250 degrees) at 2 MPH (2 knots; 1.0 m/s)
Visibility: 6 or more miles (10+ km)
Ceiling: ceiling and visibility are OK
Clouds: unknown
Weather: no significant weather observed at this time

METAR text: LKPR 260230Z 28002KT CAVOK 11/10 Q1019 NOSIG
Conditions at: LKPR (PRAGUE/RUZYNE , CZ) observed 0230 UTC 26 September 2021
Temperature: 11.0°C (52°F)
Dewpoint: 10.0°C (50°F) [RH = 94%]
Pressure (altimeter): 30.09 inches Hg (1019.0 mb)
Winds: from the W (280 degrees) at 2 MPH (2 knots; 1.0 m/s)
Visibility: 6 or more miles (10+ km)
Ceiling: ceiling and visibility are OK
Clouds: unknown
Weather: no significant weather observed at this time

METAR text: LKPR 260200Z VRB01KT CAVOK 10/09 Q1019 NOSIG
Conditions at: LKPR (PRAGUE/RUZYNE , CZ) observed 0200 UTC 26 September 2021
Temperature: 10.0°C (50°F)
Dewpoint: 9.0°C (48°F) [RH = 93%]
Pressure (altimeter): 30.09 inches Hg (1019.0 mb)
Winds: variable direction winds at 1 MPH (1 knots; 0.5 m/s)
Visibility: 6 or more miles (10+ km)
Ceiling: ceiling and visibility are OK
Clouds: unknown
Weather: no significant weather observed at this time

METAR text: LKPR 260130Z VRB01KT CAVOK 12/11 Q1019 NOSIG
Conditions at: LKPR (PRAGUE/RUZYNE , CZ) observed 0130 UTC 26 September 2021
Temperature: 12.0°C (54°F)
Dewpoint: 11.0°C (52°F) [RH = 94%]
Pressure (altimeter): 30.09 inches Hg (1019.0 mb)
Winds: variable direction winds at 1 MPH (1 knots; 0.5 m/s)
Visibility: 6 or more miles (10+ km)
Ceiling: ceiling and visibility are OK
Clouds: unknown
Weather: no significant weather observed at this time

METAR text: LKPR 260100Z 00000KT CAVOK 12/11 Q1019 NOSIG
Conditions at: LKPR (PRAGUE/RUZYNE , CZ) observed 0100 UTC 26 September 2021
Temperature: 12.0°C (54°F)
Dewpoint: 11.0°C (52°F) [RH = 94%]
Pressure (altimeter): 30.09 inches Hg (1019.0 mb)
Winds: calm
Visibility: 6 or more miles (10+ km)
Ceiling: ceiling and visibility are OK
Clouds: unknown
Weather: no significant weather observed at this time

METAR text: LKPR 260030Z 18003KT CAVOK 11/10 Q1019 NOSIG
Conditions at: LKPR (PRAGUE/RUZYNE , CZ) observed 0030 UTC 26 September 2021
Temperature: 11.0°C (52°F)
Dewpoint: 10.0°C (50°F) [RH = 94%]
Pressure (altimeter): 30.09 inches Hg (1019.0 mb)
Winds: from the S (180 degrees) at 3 MPH (3 knots; 1.5 m/s)
Visibility: 6 or more miles (10+ km)
Ceiling: ceiling and visibility are OK
Clouds: unknown
Weather: no significant weather observed at this time

METAR text: LKPR 260000Z 16002KT CAVOK 13/11 Q1019 NOSIG
Conditions at: LKPR (PRAGUE/RUZYNE , CZ) observed 0000 UTC 26 September 2021
Temperature: 13.0°C (55°F)
Dewpoint: 11.0°C (52°F) [RH = 88%]
Pressure (altimeter): 30.09 inches Hg (1019.0 mb)
Winds: from the SSE (160 degrees) at 2 MPH (2 knots; 1.0 m/s)
Visibility: 6 or more miles (10+ km)
Ceiling: ceiling and visibility are OK
Clouds: unknown
Weather: no significant weather observed at this time

METAR text: LKPR 252330Z 19003KT CAVOK 12/11 Q1019 NOSIG
Conditions at: LKPR (PRAGUE/RUZYNE , CZ) observed 2330 UTC 25 September 2021
Temperature: 12.0°C (54°F)
Dewpoint: 11.0°C (52°F) [RH = 94%]
Pressure (altimeter): 30.09 inches Hg (1019.0 mb)
Winds: from the S (190 degrees) at 3 MPH (3 knots; 1.5 m/s)
Visibility: 6 or more miles (10+ km)
Ceiling: ceiling and visibility are OK
Clouds: unknown
Weather: no significant weather observed at this time

METAR text: LKPR 252300Z 18004KT CAVOK 12/10 Q1019 NOSIG
Conditions at: LKPR (PRAGUE/RUZYNE , CZ) observed 2300 UTC 25 September 2021
Temperature: 12.0°C (54°F)
Dewpoint: 10.0°C (50°F) [RH = 88%]
Pressure (altimeter): 30.09 inches Hg (1019.0 mb)
Winds: from the S (180 degrees) at 5 MPH (4 knots; 2.1 m/s)
Visibility: 6 or more miles (10+ km)
Ceiling: ceiling and visibility are OK
Clouds: unknown
Weather: no significant weather observed at this time

METAR text: LKPR 252230Z 16003KT 140V210 CAVOK 14/10 Q1019 NOSIG
Conditions at: LKPR (PRAGUE/RUZYNE , CZ) observed 2230 UTC 25 September 2021
Temperature: 14.0°C (57°F)
Dewpoint: 10.0°C (50°F) [RH = 77%]
Pressure (altimeter): 30.09 inches Hg (1019.0 mb)
Winds: from the SSE (160 degrees) at 3 MPH (3 knots; 1.5 m/s)
Visibility: 6 or more miles (10+ km)
Ceiling: ceiling and visibility are OK
Clouds: unknown
Weather: no significant weather observed at this time

METAR text: LKPR 252200Z 12003KT CAVOK 13/10 Q1019 NOSIG
Conditions at: LKPR (PRAGUE/RUZYNE , CZ) observed 2200 UTC 25 September 2021
Temperature: 13.0°C (55°F)
Dewpoint: 10.0°C (50°F) [RH = 82%]
Pressure (altimeter): 30.09 inches Hg (1019.0 mb)
Winds: from the ESE (120 degrees) at 3 MPH (3 knots; 1.5 m/s)
Visibility: 6 or more miles (10+ km)
Ceiling: ceiling and visibility are OK
Clouds: unknown
Weather: no significant weather observed at this time

METAR text: LKPR 252130Z 16003KT CAVOK 14/10 Q1019 NOSIG
Conditions at: LKPR (PRAGUE/RUZYNE , CZ) observed 2130 UTC 25 September 2021
Temperature: 14.0°C (57°F)
Dewpoint: 10.0°C (50°F) [RH = 77%]
Pressure (altimeter): 30.09 inches Hg (1019.0 mb)
Winds: from the SSE (160 degrees) at 3 MPH (3 knots; 1.5 m/s)
Visibility: 6 or more miles (10+ km)
Ceiling: ceiling and visibility are OK
Clouds: unknown
Weather: no significant weather observed at this time

METAR text: LKPR 252100Z 17003KT CAVOK 15/11 Q1019 NOSIG
Conditions at: LKPR (PRAGUE/RUZYNE , CZ) observed 2100 UTC 25 September 2021
Temperature: 15.0°C (59°F)
Dewpoint: 11.0°C (52°F) [RH = 77%]
Pressure (altimeter): 30.09 inches Hg (1019.0 mb)
Winds: from the S (170 degrees) at 3 MPH (3 knots; 1.5 m/s)
Visibility: 6 or more miles (10+ km)
Ceiling: ceiling and visibility are OK
Clouds: unknown
Weather: no significant weather observed at this time

METAR text: LKPR 252030Z 14003KT CAVOK 14/11 Q1019 NOSIG
Conditions at: LKPR (PRAGUE/RUZYNE , CZ) observed 2030 UTC 25 September 2021
Temperature: 14.0°C (57°F)
Dewpoint: 11.0°C (52°F) [RH = 82%]
Pressure (altimeter): 30.09 inches Hg (1019.0 mb)
Winds: from the SE (140 degrees) at 3 MPH (3 knots; 1.5 m/s)
Visibility: 6 or more miles (10+ km)
Ceiling: ceiling and visibility are OK
Clouds: unknown
Weather: no significant weather observed at this time

METAR text: LKPR 252000Z 13004KT CAVOK 14/10 Q1019 NOSIG
Conditions at: LKPR (PRAGUE/RUZYNE , CZ) observed 2000 UTC 25 September 2021
Temperature: 14.0°C (57°F)
Dewpoint: 10.0°C (50°F) [RH = 77%]
Pressure (altimeter): 30.09 inches Hg (1019.0 mb)
Winds: from the SE (130 degrees) at 5 MPH (4 knots; 2.1 m/s)
Visibility: 6 or more miles (10+ km)
Ceiling: ceiling and visibility are OK
Clouds: unknown
Weather: no significant weather observed at this time

METAR text: LKPR 251930Z 12006KT CAVOK 14/10 Q1018 NOSIG
Conditions at: LKPR (PRAGUE/RUZYNE , CZ) observed 1930 UTC 25 September 2021
Temperature: 14.0°C (57°F)
Dewpoint: 10.0°C (50°F) [RH = 77%]
Pressure (altimeter): 30.06 inches Hg (1018.0 mb)
Winds: from the ESE (120 degrees) at 7 MPH (6 knots; 3.1 m/s)
Visibility: 6 or more miles (10+ km)
Ceiling: ceiling and visibility are OK
Clouds: unknown
Weather: no significant weather observed at this time

METAR text: LKPR 251900Z 11006KT CAVOK 15/11 Q1018 NOSIG
Conditions at: LKPR (PRAGUE/RUZYNE , CZ) observed 1900 UTC 25 September 2021
Temperature: 15.0°C (59°F)
Dewpoint: 11.0°C (52°F) [RH = 77%]
Pressure (altimeter): 30.06 inches Hg (1018.0 mb)
Winds: from the ESE (110 degrees) at 7 MPH (6 knots; 3.1 m/s)
Visibility: 6 or more miles (10+ km)
Ceiling: ceiling and visibility are OK
Clouds: unknown
Weather: no significant weather observed at this time

METAR text: LKPR 251830Z 10007KT CAVOK 15/11 Q1018 NOSIG
Conditions at: LKPR (PRAGUE/RUZYNE , CZ) observed 1830 UTC 25 September 2021
Temperature: 15.0°C (59°F)
Dewpoint: 11.0°C (52°F) [RH = 77%]
Pressure (altimeter): 30.06 inches Hg (1018.0 mb)
Winds: from the E (100 degrees) at 8 MPH (7 knots; 3.6 m/s)
Visibility: 6 or more miles (10+ km)
Ceiling: ceiling and visibility are OK
Clouds: unknown
Weather: no significant weather observed at this time

METAR text: LKPR 251800Z 09006KT CAVOK 16/11 Q1018 NOSIG
Conditions at: LKPR (PRAGUE/RUZYNE , CZ) observed 1800 UTC 25 September 2021
Temperature: 16.0°C (61°F)
Dewpoint: 11.0°C (52°F) [RH = 72%]
Pressure (altimeter): 30.06 inches Hg (1018.0 mb)
Winds: from the E (90 degrees) at 7 MPH (6 knots; 3.1 m/s)
Visibility: 6 or more miles (10+ km)
Ceiling: ceiling and visibility are OK
Clouds: unknown
Weather: no significant weather observed at this time

METAR text: LKPR 251730Z 11004KT CAVOK 18/11 Q1018 NOSIG
Conditions at: LKPR (PRAGUE/RUZYNE , CZ) observed 1730 UTC 25 September 2021
Temperature: 18.0°C (64°F)
Dewpoint: 11.0°C (52°F) [RH = 64%]
Pressure (altimeter): 30.06 inches Hg (1018.0 mb)
Winds: from the ESE (110 degrees) at 5 MPH (4 knots; 2.1 m/s)
Visibility: 6 or more miles (10+ km)
Ceiling: ceiling and visibility are OK
Clouds: unknown
Weather: no significant weather observed at this time

METAR text: LKPR 251700Z 09003KT 050V120 CAVOK 20/11 Q1018 NOSIG
Conditions at: LKPR (PRAGUE/RUZYNE , CZ) observed 1700 UTC 25 September 2021
Temperature: 20.0°C (68°F)
Dewpoint: 11.0°C (52°F) [RH = 56%]
Pressure (altimeter): 30.06 inches Hg (1018.0 mb)
Winds: from the E (90 degrees) at 3 MPH (3 knots; 1.5 m/s)
Visibility: 6 or more miles (10+ km)
Ceiling: ceiling and visibility are OK
Clouds: unknown
Weather: no significant weather observed at this time

METAR text: LKPR 251630Z VRB02KT CAVOK 20/12 Q1018 NOSIG
Conditions at: LKPR (PRAGUE/RUZYNE , CZ) observed 1630 UTC 25 September 2021
Temperature: 20.0°C (68°F)
Dewpoint: 12.0°C (54°F) [RH = 60%]
Pressure (altimeter): 30.06 inches Hg (1018.0 mb)
Winds: variable direction winds at 2 MPH (2 knots; 1.0 m/s)
Visibility: 6 or more miles (10+ km)
Ceiling: ceiling and visibility are OK
Clouds: unknown
Weather: no significant weather observed at this time

METAR text: LKPR 251600Z VRB01KT 9999 FEW042 22/11 Q1018 NOSIG
Conditions at: LKPR (PRAGUE/RUZYNE , CZ) observed 1600 UTC 25 September 2021
Temperature: 22.0°C (72°F)
Dewpoint: 11.0°C (52°F) [RH = 50%]
Pressure (altimeter): 30.06 inches Hg (1018.0 mb)
Winds: variable direction winds at 1 MPH (1 knots; 0.5 m/s)
Visibility: 6 or more miles (10+ km)
Ceiling: at least 12,000 feet AGL
Clouds: few clouds at 4200 feet AGL
Weather: no significant weather observed at this time

METAR text: LKPR 251530Z VRB01KT 9999 FEW042 22/12 Q1018 NOSIG
Conditions at: LKPR (PRAGUE/RUZYNE , CZ) observed 1530 UTC 25 September 2021
Temperature: 22.0°C (72°F)
Dewpoint: 12.0°C (54°F) [RH = 53%]
Pressure (altimeter): 30.06 inches Hg (1018.0 mb)
Winds: variable direction winds at 1 MPH (1 knots; 0.5 m/s)
Visibility: 6 or more miles (10+ km)
Ceiling: at least 12,000 feet AGL
Clouds: few clouds at 4200 feet AGL
Weather: no significant weather observed at this time

METAR text: LKPR 251500Z 23004KT 160V270 9999 FEW041 22/12 Q1018 NOSIG
Conditions at: LKPR (PRAGUE/RUZYNE , CZ) observed 1500 UTC 25 September 2021
Temperature: 22.0°C (72°F)
Dewpoint: 12.0°C (54°F) [RH = 53%]
Pressure (altimeter): 30.06 inches Hg (1018.0 mb)
Winds: from the SW (230 degrees) at 5 MPH (4 knots; 2.1 m/s)
Visibility: 6 or more miles (10+ km)
Ceiling: at least 12,000 feet AGL
Clouds: few clouds at 4100 feet AGL
Weather: no significant weather observed at this time

METAR text: LKPR 251430Z VRB01KT 9999 FEW040 22/12 Q1018 NOSIG
Conditions at: LKPR (PRAGUE/RUZYNE , CZ) observed 1430 UTC 25 September 2021
Temperature: 22.0°C (72°F)
Dewpoint: 12.0°C (54°F) [RH = 53%]
Pressure (altimeter): 30.06 inches Hg (1018.0 mb)
Winds: variable direction winds at 1 MPH (1 knots; 0.5 m/s)
Visibility: 6 or more miles (10+ km)
Ceiling: at least 12,000 feet AGL
Clouds: few clouds at 4000 feet AGL
Weather: no significant weather observed at this time

METAR text: LKPR 251400Z 25003KT 210V290 9999 FEW040 22/12 Q1018 NOSIG
Conditions at: LKPR (PRAGUE/RUZYNE , CZ) observed 1400 UTC 25 September 2021
Temperature: 22.0°C (72°F)
Dewpoint: 12.0°C (54°F) [RH = 53%]
Pressure (altimeter): 30.06 inches Hg (1018.0 mb)
Winds: from the WSW (250 degrees) at 3 MPH (3 knots; 1.5 m/s)
Visibility: 6 or more miles (10+ km)
Ceiling: at least 12,000 feet AGL
Clouds: few clouds at 4000 feet AGL
Weather: no significant weather observed at this time

METAR text: LKPR 251330Z 24006KT 180V300 9999 FEW038 22/12 Q1018 NOSIG
Conditions at: LKPR (PRAGUE/RUZYNE , CZ) observed 1330 UTC 25 September 2021
Temperature: 22.0°C (72°F)
Dewpoint: 12.0°C (54°F) [RH = 53%]
Pressure (altimeter): 30.06 inches Hg (1018.0 mb)
Winds: from the WSW (240 degrees) at 7 MPH (6 knots; 3.1 m/s)
Visibility: 6 or more miles (10+ km)
Ceiling: at least 12,000 feet AGL
Clouds: few clouds at 3800 feet AGL
Weather: no significant weather observed at this time

METAR text: LKPR 251300Z 27006KT 240V300 9999 SCT038 21/12 Q1018 NOSIG
Conditions at: LKPR (PRAGUE/RUZYNE , CZ) observed 1300 UTC 25 September 2021
Temperature: 21.0°C (70°F)
Dewpoint: 12.0°C (54°F) [RH = 56%]
Pressure (altimeter): 30.06 inches Hg (1018.0 mb)
Winds: from the W (270 degrees) at 7 MPH (6 knots; 3.1 m/s)
Visibility: 6 or more miles (10+ km)
Ceiling: at least 12,000 feet AGL
Clouds: scattered clouds at 3800 feet AGL
Weather: no significant weather observed at this time

METAR text: LKPR 251230Z 22005KT 190V260 9999 SCT038 20/11 Q1018 NOSIG
Conditions at: LKPR (PRAGUE/RUZYNE , CZ) observed 1230 UTC 25 September 2021
Temperature: 20.0°C (68°F)
Dewpoint: 11.0°C (52°F) [RH = 56%]
Pressure (altimeter): 30.06 inches Hg (1018.0 mb)
Winds: from the SW (220 degrees) at 6 MPH (5 knots; 2.6 m/s)
Visibility: 6 or more miles (10+ km)
Ceiling: at least 12,000 feet AGL
Clouds: scattered clouds at 3800 feet AGL
Weather: no significant weather observed at this time

METAR text: LKPR 251200Z 24005KT 170V280 9999 SCT036 20/11 Q1018 NOSIG
Conditions at: LKPR (PRAGUE/RUZYNE , CZ) observed 1200 UTC 25 September 2021
Temperature: 20.0°C (68°F)
Dewpoint: 11.0°C (52°F) [RH = 56%]
Pressure (altimeter): 30.06 inches Hg (1018.0 mb)
Winds: from the WSW (240 degrees) at 6 MPH (5 knots; 2.6 m/s)
Visibility: 6 or more miles (10+ km)
Ceiling: at least 12,000 feet AGL
Clouds: scattered clouds at 3600 feet AGL
Weather: no significant weather observed at this time

METAR text: LKPR 251130Z 26006KT 230V320 9999 SCT036 19/11 Q1019 NOSIG
Conditions at: LKPR (PRAGUE/RUZYNE , CZ) observed 1130 UTC 25 September 2021
Temperature: 19.0°C (66°F)
Dewpoint: 11.0°C (52°F) [RH = 60%]
Pressure (altimeter): 30.09 inches Hg (1019.0 mb)
Winds: from the W (260 degrees) at 7 MPH (6 knots; 3.1 m/s)
Visibility: 6 or more miles (10+ km)
Ceiling: at least 12,000 feet AGL
Clouds: scattered clouds at 3600 feet AGL
Weather: no significant weather observed at this time

METAR text: LKPR 251100Z 27006KT 210V310 9999 SCT036 19/11 Q1019 NOSIG
Conditions at: LKPR (PRAGUE/RUZYNE , CZ) observed 1100 UTC 25 September 2021
Temperature: 19.0°C (66°F)
Dewpoint: 11.0°C (52°F) [RH = 60%]
Pressure (altimeter): 30.09 inches Hg (1019.0 mb)
Winds: from the W (270 degrees) at 7 MPH (6 knots; 3.1 m/s)
Visibility: 6 or more miles (10+ km)
Ceiling: at least 12,000 feet AGL
Clouds: scattered clouds at 3600 feet AGL
Weather: no significant weather observed at this time

METAR text: LKPR 251030Z VRB04KT 9999 FEW030 SCT033 19/11 Q1019 NOSIG
Conditions at: LKPR (PRAGUE/RUZYNE , CZ) observed 1030 UTC 25 September 2021
Temperature: 19.0°C (66°F)
Dewpoint: 11.0°C (52°F) [RH = 60%]
Pressure (altimeter): 30.09 inches Hg (1019.0 mb)
Winds: variable direction winds at 5 MPH (4 knots; 2.1 m/s)
Visibility: 6 or more miles (10+ km)
Ceiling: at least 12,000 feet AGL
Clouds: few clouds at 3000 feet AGL
scattered clouds at 3300 feet AGL
Weather: no significant weather observed at this time

METAR text: LKPR 251000Z 27007KT 230V310 9999 FEW030 SCT033 18/10 Q1019 NOSIG
Conditions at: LKPR (PRAGUE/RUZYNE , CZ) observed 1000 UTC 25 September 2021
Temperature: 18.0°C (64°F)
Dewpoint: 10.0°C (50°F) [RH = 59%]
Pressure (altimeter): 30.09 inches Hg (1019.0 mb)
Winds: from the W (270 degrees) at 8 MPH (7 knots; 3.6 m/s)
Visibility: 6 or more miles (10+ km)
Ceiling: at least 12,000 feet AGL
Clouds: few clouds at 3000 feet AGL
scattered clouds at 3300 feet AGL
Weather: no significant weather observed at this time

METAR text: LKPR 250930Z 26008KT 9999 FEW028 BKN033 18/10 Q1019 NOSIG
Conditions at: LKPR (PRAGUE/RUZYNE , CZ) observed 0930 UTC 25 September 2021
Temperature: 18.0°C (64°F)
Dewpoint: 10.0°C (50°F) [RH = 59%]
Pressure (altimeter): 30.09 inches Hg (1019.0 mb)
Winds: from the W (260 degrees) at 9 MPH (8 knots; 4.1 m/s)
Visibility: 6 or more miles (10+ km)
Ceiling: 3300 feet AGL
Clouds: few clouds at 2800 feet AGL
broken clouds at 3300 feet AGL
Weather: no significant weather observed at this time

METAR text: LKPR 250900Z 24009KT 9999 FEW022 BKN030 17/11 Q1019 NOSIG
Conditions at: LKPR (PRAGUE/RUZYNE , CZ) observed 0900 UTC 25 September 2021
Temperature: 17.0°C (63°F)
Dewpoint: 11.0°C (52°F) [RH = 68%]
Pressure (altimeter): 30.09 inches Hg (1019.0 mb)
Winds: from the WSW (240 degrees) at 10 MPH (9 knots; 4.6 m/s)
Visibility: 6 or more miles (10+ km)
Ceiling: 3000 feet AGL
Clouds: few clouds at 2200 feet AGL
broken clouds at 3000 feet AGL
Weather: no significant weather observed at this time

METAR text: LKPR 250830Z 23009KT 9999 FEW022 SCT033 17/12 Q1019 NOSIG
Conditions at: LKPR (PRAGUE/RUZYNE , CZ) observed 0830 UTC 25 September 2021
Temperature: 17.0°C (63°F)
Dewpoint: 12.0°C (54°F) [RH = 72%]
Pressure (altimeter): 30.09 inches Hg (1019.0 mb)
Winds: from the SW (230 degrees) at 10 MPH (9 knots; 4.6 m/s)
Visibility: 6 or more miles (10+ km)
Ceiling: at least 12,000 feet AGL
Clouds: few clouds at 2200 feet AGL
scattered clouds at 3300 feet AGL
Weather: no significant weather observed at this time

METAR text: LKPR 250800Z 24009KT 220V290 9999 FEW022 SCT033 17/12 Q1018 NOSIG
Conditions at: LKPR (PRAGUE/RUZYNE , CZ) observed 0800 UTC 25 September 2021
Temperature: 17.0°C (63°F)
Dewpoint: 12.0°C (54°F) [RH = 72%]
Pressure (altimeter): 30.06 inches Hg (1018.0 mb)
Winds: from the WSW (240 degrees) at 10 MPH (9 knots; 4.6 m/s)
Visibility: 6 or more miles (10+ km)
Ceiling: at least 12,000 feet AGL
Clouds: few clouds at 2200 feet AGL
scattered clouds at 3300 feet AGL
Weather: no significant weather observed at this time

Forecast for: LKPR (PRAGUE/RUZYNE , CZ)
Text: TAF LKPR 261700Z 2618/2800 VRB02KT CAVOK
Forecast period: 1800 UTC 26 September 2021 to 1600 UTC 27 September 2021
Forecast type: FROM: standard forecast or significant change
Winds: variable direction winds at 2 MPH (2 knots; 1.0 m/s)
Visibility: 6 or more miles (10+ km)
Ceiling: unknown
Clouds: missing
Weather: NSW  (no significant weather)
Text: TEMPO 2618/2620 10005KT
Forecast period: 1800 to 2000 UTC 26 September 2021
Forecast type: TEMPORARY: The following changes expected for less than half the time period
Winds: from the E (100 degrees) at 6 MPH (5 knots; 2.6 m/s)
Visibility: missing
Ceiling: unknown
Clouds: missing
Weather: no significant weather forecast for this period
Text: TEMPO 2701/2707 3000 BR SCT003
Forecast period: 0100 to 0700 UTC 27 September 2021
Forecast type: TEMPORARY: The following changes expected for less than half the time period
Visibility: 1.86 miles (2.99 km)
Ceiling: at least 12,000 feet AGL
Clouds: scattered clouds at 300 feet AGL
Weather: BR  (mist)
Text: PROB30
Forecast period: 0300 to 0600 UTC 27 September 2021
Forecast type: TEMPORARY: The following changes expected for less than half the time period
Visibility: 0.50 miles (0.80 km)
Ceiling: 300 feet AGL
Clouds: broken clouds at 300 feet AGL
Weather: FG  (fog)
Text: TEMPO 2703/2706 0800 FG BKN003
Forecast period: 0900 to 1600 UTC 27 September 2021
Forecast type: TEMPORARY: The following changes expected for less than half the time period
Winds: from the N (350 degrees) at 6 MPH (5 knots; 2.6 m/s)
Visibility: 5 miles (8 km)
Ceiling: 3500 feet AGL
Clouds: broken clouds at 3500 feet AGL
Weather: -SHRA  (light rain showers)
Text: TEMPO 2709/2716 35005KT 8000 -SHRA BKN035
Forecast period: 1600 UTC 27 September 2021 to 0000 UTC 28 September 2021
Forecast type: BECOMING: Conditions expected to become as follows by 1800 UTC 27 September 2021
Winds: from the W (270 degrees) at 7 MPH (6 knots; 3.1 m/s)
Visibility: 6 or more miles (10+ km)
Ceiling: unknown
Clouds: missing
Weather: NSW  (no significant weather)